Flight Track Log - Related Links

Times and Time Zones

All times are in EDT time to prevent confusion due to time zone crossing. See the AAY855 flight status page for this flight to view local times or setup timezone preferences in your user account.


Time Position Orientation Groundspeed Altitude Reporting Facility
EDT Latitude Longitude Course Direction KTS MPH feet Rate Location/Type
Mon 09:22:40 PM 41.6939 -86.3617 201° Southwest 191 220 2,200  Level Chicago Center
Mon 09:23:42 PM 41.6253 -86.4092 207° Southwest 235 270 4,300 2,488 Climbing Chicago Center
Mon 09:24:43 PM 41.5553 -86.4519 205° Southwest 269 310 7,300 2,683 Climbing Chicago Center
Mon 09:25:45 PM 41.4944 -86.5133 217° Southwest 272 313 9,800 1,306 Climbing Chicago Center
Mon 09:26:47 PM 41.4236 -86.5800 215° Southwest 317 365 10,000 1,065 Climbing Chicago Center
Mon 09:27:49 PM 41.3436 -86.6547 215° Southwest 347 399 12,000 2,305 Climbing Chicago Center
Mon 09:28:00 PM 41.0980 -86.7093 201° Southwest  Level FlightAware Approximate
Mon 09:29:18 PM 41.2169 -86.7825 217° Southwest 360 414 15,800  Level Chicago Center
Mon 09:30:19 PM 41.1150 -86.8178 195° South 394 453 17,900 2,033 Climbing Chicago Center
Mon 09:31:19 PM 41.0103 -86.7719 162° South 421 484 19,900 1,869 Climbing Chicago Center
Mon 09:32:21 PM 40.8911 -86.7208 162° South 424 488 21,700 1,500 Climbing Chicago Center
Mon 09:33:23 PM 40.7731 -86.6714 162° South 443 510 23,000 1,742 Climbing Chicago Center
Mon 09:34:25 PM 40.6481 -86.6175 162° South 445 512 25,300 1,887 Climbing Chicago Center
Mon 09:35:27 PM 40.5336 -86.5694 162° South 437 503 26,900 1,452 Climbing Chicago Center
Mon 09:36:29 PM 40.4192 -86.5219 162° South 434 499 28,300 1,268 Climbing Chicago Center
Mon 09:37:30 PM 40.3067 -86.4756 163° South 429 494 29,500 1,268 Climbing Chicago Center
Mon 09:38:32 PM 40.1694 -86.4150 161° South 430 495 30,900 726 Climbing Chicago Center
Mon 09:39:34 PM 40.0581 -86.3656 161° South 427 491 31,000 48 Climbing Chicago Center
Mon 09:40:36 PM 39.9436 -86.3203 163° South 427 491 31,000  Level Chicago Center
Mon 09:41:38 PM 39.8158 -86.2717 164° South 431 496 31,000  Level Chicago Center
Mon 09:42:39 PM 39.7000 -86.2272 164° South 431 496 31,000 49 Level Chicago Center
Mon 09:43:41 PM 39.5889 -86.1736 160° South 436 502 31,100 677 Climbing Chicago Center
Mon 09:44:43 PM 39.4744 -86.1242 162° South 438 504 32,400 919 Climbing Chicago Center
Mon 09:45:45 PM 39.3644 -86.0800 163° South 423 487 33,000 255 Climbing Chicago Center
Mon 09:47:04 PM 39.2103 -86.0211 164° South 417 480 33,000  Level Indianapolis Center
Mon 09:48:05 PM 39.0981 -85.9775 163° South 417 480 33,000  Level Indianapolis Center
Mon 09:49:06 PM 38.9842 -85.9292 162° South 426 490 33,000  Level Indianapolis Center
Mon 09:50:07 PM 38.8706 -85.8817 162° South 428 493 33,000  Level Indianapolis Center
Mon 09:51:09 PM 38.7561 -85.8353 162° South 428 493 33,000  Level Indianapolis Center
Mon 09:52:10 PM 38.6408 -85.7894 163° South 429 494 33,000  Level Indianapolis Center
Mon 09:53:11 PM 38.5258 -85.7444 163° South 429 494 33,000  Level Indianapolis Center
Mon 09:54:12 PM 38.4131 -85.6997 163° South 429 494 33,000  Level Indianapolis Center
Mon 09:55:13 PM 38.2986 -85.6550 163° South 428 493 33,000  Level Indianapolis Center
Mon 09:56:14 PM 38.1606 -85.6008 163° South 428 493 33,000  Level Indianapolis Center
Mon 09:57:15 PM 38.0456 -85.5603 164° South 428 493 33,000  Level Indianapolis Center
Mon 09:58:16 PM 37.9339 -85.5317 169° South 413 475 33,000  Level Indianapolis Center
Mon 09:59:17 PM 37.8150 -85.5017 169° South 413 475 33,000  Level Indianapolis Center
Mon 10:00:19 PM 37.7011 -85.4706 168° South 414 476 33,000  Level Indianapolis Center
Mon 10:01:20 PM 37.5822 -85.4597 176° South 418 481 33,000  Level Indianapolis Center
Mon 10:02:21 PM 37.4686 -85.4547 178° South 413 475 33,000  Level Indianapolis Center
Mon 10:03:22 PM 37.3517 -85.4522 179° South 417 480 33,000  Level Indianapolis Center
Mon 10:04:23 PM 37.2356 -85.4503 179° South 417 480 33,000  Level Indianapolis Center
Mon 10:05:24 PM 37.1197 -85.4478 179° South 417 480 33,000  Level Indianapolis Center
Mon 10:06:25 PM 36.9878 -85.4192 170° South 426 490 33,000  Level Indianapolis Center
Mon 10:07:26 PM 36.8731 -85.3775 164° South 428 493 33,000  Level Indianapolis Center
Mon 10:08:27 PM 36.7586 -85.3367 164° South 428 493 33,000  Level Indianapolis Center
Mon 10:09:28 PM 36.6400 -85.3028 167° South 432 497 33,000  Level Indianapolis Center
Mon 10:10:29 PM 36.5208 -85.2697 167° South 435 501 33,000  Level Indianapolis Center
Mon 10:11:30 PM 36.4008 -85.2628 177° South 436 502 33,000  Level Indianapolis Center
Mon 10:12:31 PM 36.2814 -85.2664 181° South 432 497 33,000  Level Indianapolis Center
Mon 10:13:32 PM 36.1589 -85.2733 183° South 434 499 33,000  Level Indianapolis Center
Mon 10:14:33 PM 36.0394 -85.2814 183° South 435 501 33,000  Level Indianapolis Center
Mon 10:15:46 PM 35.8872 -85.2947 184° South 441 507 33,000  Level Atlanta Center
Mon 10:16:46 PM 35.7556 -85.3081 185° South 441 507 33,000  Level Atlanta Center
Mon 10:17:46 PM 35.6344 -85.3164 183° South 441 507 33,000  Level Atlanta Center
Mon 10:18:46 PM 35.5175 -85.3325 186° South 441 507 33,000  Level Atlanta Center
Mon 10:19:46 PM 35.3961 -85.3558 189° South 441 507 33,000  Level Atlanta Center
Mon 10:20:46 PM 35.2792 -85.3769 188° South 441 507 33,000  Level Atlanta Center
Mon 10:21:46 PM 35.1603 -85.3775 180° South 441 507 33,000  Level Atlanta Center
Mon 10:22:46 PM 35.0394 -85.3528 170° South 431 496 33,000  Level Atlanta Center
Mon 10:23:46 PM 34.9231 -85.3206 167° South 436 502 33,000  Level Atlanta Center
Mon 10:24:46 PM 34.8022 -85.2933 170° South 436 502 33,000  Level Atlanta Center
Mon 10:25:46 PM 34.6814 -85.2664 170° South 441 507 33,000  Level Atlanta Center
Mon 10:26:46 PM 34.5586 -85.2394 170° South 446 513 33,000  Level Atlanta Center
Mon 10:27:46 PM 34.4378 -85.2125 170° South 452 520 33,000  Level Atlanta Center
Mon 10:28:46 PM 34.3169 -85.1856 170° South 447 514 33,000  Level Atlanta Center
Mon 10:29:46 PM 34.1919 -85.1564 169° South 447 514 33,000  Level Atlanta Center
Mon 10:30:46 PM 34.0711 -85.1322 171° South 447 514 33,000  Level Atlanta Center
Mon 10:31:46 PM 33.9483 -85.1081 171° South 447 514 33,000  Level Atlanta Center
Mon 10:32:46 PM 33.8233 -85.0764 168° South 447 514 33,000  Level Atlanta Center
Mon 10:33:46 PM 33.7025 -85.0500 170° South 447 514 33,000  Level Atlanta Center
Mon 10:34:46 PM 33.5900 -85.0264 170° South 452 520 33,000  Level Atlanta Center
Mon 10:35:46 PM 33.4650 -84.9975 169° South 452 520 33,000  Level Atlanta Center
Mon 10:36:46 PM 33.3442 -84.9714 170° South 452 520 33,000  Level Atlanta Center
Mon 10:37:46 PM 33.2192 -84.9428 169° South 452 520 33,000  Level Atlanta Center
Mon 10:38:46 PM 33.0981 -84.9167 170° South 446 513 33,000  Level Atlanta Center
Mon 10:39:46 PM 32.9753 -84.8881 169° South 446 513 33,000  Level Atlanta Center
Mon 10:40:46 PM 32.8500 -84.8622 170° South 446 513 33,000  Level Atlanta Center
Mon 10:41:46 PM 32.7147 -84.8339 170° South 446 513 33,000  Level Atlanta Center
Mon 10:43:45 PM 32.4739 -84.7789 169° South 478 550 33,000  Level Jacksonville Center
Mon 10:44:45 PM 32.3469 -84.7517 170° South 471 542 33,000  Level Jacksonville Center
Mon 10:45:44 PM 32.2264 -84.7247 169° South 465 535 33,000  Level Jacksonville Center
Mon 10:46:45 PM 32.1014 -84.6975 170° South 458 527 33,000  Level Jacksonville Center
Mon 10:47:45 PM 31.9808 -84.6756 171° South 452 520 33,000  Level Jacksonville Center
Mon 10:48:45 PM 31.8578 -84.6489 170° South 447 514 33,000  Level Jacksonville Center
Mon 10:49:45 PM 31.7350 -84.6219 169° South 447 514 33,000  Level Jacksonville Center
Mon 10:50:45 PM 31.6103 -84.5953 170° South 447 514 33,000  Level Jacksonville Center
Mon 10:51:45 PM 31.4894 -84.5711 170° South 447 514 33,000  Level Jacksonville Center
Mon 10:52:45 PM 31.3667 -84.5472 171° South 447 514 33,000  Level Jacksonville Center
Mon 10:53:45 PM 31.2481 -84.5061 163° South 447 514 33,000  Level Jacksonville Center
Mon 10:54:45 PM 31.1319 -84.4458 156° South 447 514 33,000  Level Jacksonville Center
Mon 10:55:45 PM 31.0200 -84.3761 152° Southeast 452 520 33,000  Level Jacksonville Center
Mon 10:56:45 PM 30.9081 -84.3114 154° Southeast 452 520 33,000  Level Jacksonville Center
Mon 10:57:45 PM 30.7917 -84.2542 157° South 452 520 33,000  Level Jacksonville Center
Mon 10:58:45 PM 30.6775 -84.1969 157° South 452 520 33,000  Level Jacksonville Center
Mon 10:59:45 PM 30.5633 -84.1350 155° Southeast 452 520 33,000  Level Jacksonville Center
Mon 11:00:45 PM 30.4531 -84.0708 153° Southeast 452 520 33,000  Level Jacksonville Center
Mon 11:01:45 PM 30.3369 -84.0069 155° Southeast 457 526 33,000  Level Jacksonville Center
Mon 11:02:45 PM 30.2225 -83.9478 156° South 457 526 33,000  Level Jacksonville Center
Mon 11:03:44 PM 30.1081 -83.8892 156° South 457 526 33,000  Level Jacksonville Center
Mon 11:04:45 PM 29.9939 -83.8278 155° Southeast 457 526 33,000  Level Jacksonville Center
Mon 11:05:45 PM 29.8794 -83.7669 155° Southeast 457 526 33,000  Level Jacksonville Center
Mon 11:06:45 PM 29.7628 -83.7061 156° South 457 526 33,000  Level Jacksonville Center
Mon 11:07:45 PM 29.6483 -83.6478 156° South 452 520 33,000  Level Jacksonville Center
Mon 11:08:45 PM 29.5319 -83.5847 155° Southeast 457 526 33,000 -1,050 Level Jacksonville Center
Mon 11:09:45 PM 29.4172 -83.5244 155° Southeast 457 526 30,900 -2,400 Descending Jacksonville Center
Mon 11:10:45 PM 29.3008 -83.4664 156° South 457 526 28,200 -2,450 Descending Jacksonville Center
Mon 11:11:45 PM 29.1967 -83.4111 155° Southeast 457 526 26,000 -2,050 Descending Jacksonville Center
Mon 11:12:45 PM 29.0861 -83.3536 156° South 450 518 24,100 -1,850 Descending Jacksonville Center
Mon 11:13:45 PM 28.9778 -83.2936 154° Southeast 440 506 22,300 -1,800 Descending Jacksonville Center
Mon 11:14:45 PM 28.8736 -83.2436 157° South 429 494 20,500 -1,750 Descending Jacksonville Center
Mon 11:15:45 PM 28.7714 -83.1839 153° Southeast 419 482 18,800 -1,650 Descending Jacksonville Center
Mon 11:16:45 PM 28.6714 -83.1339 156° South 409 471 17,200 -1,667 Descending Jacksonville Center
Mon 11:17:33 PM 28.5833 -83.0833 153° Southeast 382 440 15,800 -1,667 Descending Tampa TRACON
Mon 11:18:33 PM 28.4833 -83.0333 156° South 371 427 14,200 -1,700 Descending Tampa TRACON
Mon 11:19:33 PM 28.4000 -83.0000 161° South 354 407 12,400 -1,597 Descending Tampa TRACON
Mon 11:20:37 PM 28.3150 -82.9375 147° Southeast 340 391 10,900 -1,548 Descending Miami Center
Mon 11:21:37 PM 28.2458 -82.8917 150° Southeast 297 342 9,200 -1,846 Descending Miami Center
Mon 11:22:21 PM 28.2000 -82.8500 141° Southeast 278 320 7,700 -2,019 Descending Tampa TRACON
Mon 11:23:21 PM 28.1333 -82.8000 147° Southeast 254 292 5,700 -2,095 Descending Tampa TRACON
Mon 11:24:27 PM 28.0667 -82.7667 156° South 239 275 3,300 -1,800 Descending Tampa TRACON
Mon 11:25:21 PM 28.0333 -82.7333 139° Southeast 210 242 2,100 -1,105 Descending Tampa TRACON
Mon 11:26:21 PM 27.9833 -82.7000 150° Southeast 167 192 1,200 -800 Descending Tampa TRACON
Mon 11:27:21 PM 27.9500 -82.7000 180° South 129 148 500 -700 Descending Tampa TRACON

Login

Don't have an account? Register now (free) for customized features, flight alerts, and more!